Cedar Glen, California
Current Conditions -  °F | °C
As of 11:49 AM on Friday 21 Nov 2014 (Local Time) from KSBD Reporting Station
Scattered Clouds Scattered Clouds  
Wind Chill: 64°   Ceiling: Unl
Heat Index: 64°   Visibility: 10mi
Dew Point: 46°   Wind: 10mph
Humidity: 52%   Direction: 250°WSW
Pressure: 29.96"   Gusts: NA
Location:  34.25°N, 117.17°W
Report Text: KSBD 211949Z 25009KT 10SM SCT070 18/08 A2996
Loading
Personal Weather Stations






























Interactive Weather Map New forecast layout! Learn more

10-Day Weather Forecast

Advertisements
Track Severe Weather on mobile